createdAt,value
2019-01-17T00:02:29.804Z,1.40
2019-01-17T00:05:02.569Z,1.50
2019-01-17T00:07:32.612Z,1.50
2019-01-17T00:10:02.662Z,1.50
2019-01-17T00:12:32.703Z,1.50
2019-01-17T00:15:02.748Z,1.30
2019-01-17T00:17:38.484Z,1.20
2019-01-17T00:20:26.209Z,1.10
2019-01-17T00:23:05.065Z,1.10
2019-01-17T00:25:47.012Z,1.10
2019-01-17T00:28:31.969Z,1.10
2019-01-17T00:31:02.019Z,1.20
2019-01-17T00:33:38.071Z,1.20
2019-01-17T00:36:24.428Z,1.20
2019-01-17T00:39:06.276Z,1.10
2019-01-17T00:41:51.151Z,1.10
2019-01-17T00:44:30.243Z,1.10
2019-01-17T00:47:06.156Z,1.10
2019-01-17T00:49:36.280Z,1.10
2019-01-17T00:52:12.356Z,1.10
2019-01-17T00:54:42.409Z,1.00
2019-01-17T00:57:24.023Z,1.00
2019-01-17T01:00:10.055Z,1.00
2019-01-17T01:02:45.819Z,0.90
2019-01-17T01:05:27.950Z,0.90
2019-01-17T01:08:12.744Z,0.90
2019-01-17T01:10:42.796Z,0.90
2019-01-17T01:13:29.069Z,0.80
2019-01-17T01:15:59.387Z,0.70
2019-01-17T01:18:35.512Z,0.70
2019-01-17T01:21:05.640Z,0.70
2019-01-17T01:23:35.675Z,0.80
2019-01-17T01:26:05.722Z,0.80
2019-01-17T01:28:47.615Z,0.80
2019-01-17T01:31:26.777Z,0.80
2019-01-17T01:34:02.336Z,0.70
2019-01-17T01:36:48.262Z,0.70
2019-01-17T01:39:34.327Z,0.70
2019-01-17T01:42:06.772Z,0.70
2019-01-17T01:44:39.843Z,0.80
2019-01-17T01:47:25.892Z,0.70
2019-01-17T01:49:55.931Z,0.60
2019-01-17T01:52:26.001Z,0.70
2019-01-17T01:54:54.400Z,0.60
2019-01-17T01:57:22.813Z,0.60
2019-01-17T01:59:51.217Z,0.50
2019-01-17T02:02:19.631Z,0.50
2019-01-17T02:04:48.040Z,0.40
2019-01-17T02:07:16.439Z,0.50
2019-01-17T02:09:44.908Z,0.50
2019-01-17T02:12:13.311Z,0.40
2019-01-17T02:14:41.787Z,0.40
2019-01-17T02:17:10.377Z,0.40
2019-01-17T02:19:38.781Z,0.40
2019-01-17T02:22:07.184Z,0.30
2019-01-17T02:24:35.589Z,0.30
2019-01-17T02:27:03.991Z,0.20
2019-01-17T02:29:32.392Z,0.20
2019-01-17T02:32:00.804Z,0.20
2019-01-17T02:34:29.219Z,0.20
2019-01-17T02:36:57.670Z,0.20
2019-01-17T02:39:26.112Z,0.20
2019-01-17T02:41:54.525Z,0.20
2019-01-17T02:44:22.999Z,0.10
2019-01-17T02:46:51.414Z,0.10
2019-01-17T02:49:19.831Z,0.10
2019-01-17T02:51:48.244Z,0.20
2019-01-17T02:54:16.654Z,0.30
2019-01-17T02:56:45.055Z,0.40
2019-01-17T02:59:13.465Z,0.50
2019-01-17T03:01:41.954Z,0.50
2019-01-17T03:04:10.363Z,0.50
2019-01-17T03:06:38.765Z,0.60
2019-01-17T03:09:07.707Z,0.70
2019-01-17T03:11:36.131Z,0.70
2019-01-17T03:14:04.685Z,0.70
2019-01-17T03:16:33.157Z,0.80
2019-01-17T03:19:01.574Z,0.90
2019-01-17T03:21:29.985Z,0.90
2019-01-17T03:23:58.383Z,1.00
2019-01-17T03:26:26.793Z,1.30
2019-01-17T03:28:55.199Z,1.50
2019-01-17T03:31:23.623Z,1.70
2019-01-17T03:33:52.028Z,2.00
2019-01-17T03:36:20.429Z,2.30
2019-01-17T03:38:48.840Z,2.60
2019-01-17T03:41:17.239Z,2.80
2019-01-17T03:43:45.678Z,3.00
2019-01-17T03:46:14.232Z,3.10
2019-01-17T03:48:42.651Z,3.20
2019-01-17T03:51:11.044Z,3.40
2019-01-17T03:53:39.460Z,3.50
2019-01-17T03:56:07.864Z,3.60
2019-01-17T03:58:36.278Z,3.70
2019-01-17T04:01:04.915Z,3.70
2019-01-17T04:03:33.396Z,3.80
2019-01-17T04:06:01.879Z,3.90
2019-01-17T04:08:30.280Z,4.00
2019-01-17T04:10:58.771Z,4.10
2019-01-17T04:13:27.172Z,4.10
2019-01-17T04:15:55.581Z,4.20
2019-01-17T04:18:24.016Z,4.20
2019-01-17T04:20:52.500Z,4.20
2019-01-17T04:23:20.900Z,4.20
2019-01-17T04:25:50.323Z,4.30
2019-01-17T04:28:18.788Z,4.30
2019-01-17T04:30:47.201Z,4.40
2019-01-17T04:33:15.608Z,4.40
2019-01-17T04:35:44.011Z,4.40
2019-01-17T04:38:12.487Z,4.40
2019-01-17T04:40:40.888Z,4.40
2019-01-17T04:43:09.300Z,4.40
2019-01-17T04:45:37.709Z,4.40
2019-01-17T04:48:06.121Z,4.40
2019-01-17T04:50:34.523Z,4.30
2019-01-17T04:53:02.930Z,4.30
2019-01-17T04:55:31.341Z,4.20
2019-01-17T04:57:59.734Z,4.30
2019-01-17T05:00:28.151Z,4.30
2019-01-17T05:02:56.550Z,4.20
2019-01-17T05:05:24.959Z,4.20
2019-01-17T05:07:53.365Z,4.20
2019-01-17T05:10:21.786Z,4.20
2019-01-17T05:12:50.197Z,4.10
2019-01-17T05:15:18.605Z,4.10
2019-01-17T05:17:47.080Z,4.00
2019-01-17T05:20:16.238Z,4.00
2019-01-17T05:22:44.716Z,3.90
2019-01-17T05:25:13.303Z,3.90
2019-01-17T05:27:41.856Z,3.90
2019-01-17T05:30:13.064Z,3.80
2019-01-17T05:32:41.554Z,3.70
2019-01-17T05:35:09.964Z,3.70
2019-01-17T05:37:38.372Z,3.60
2019-01-17T05:40:09.869Z,3.60
2019-01-17T05:42:38.277Z,3.50
2019-01-17T05:45:08.619Z,3.50
2019-01-17T05:47:37.023Z,3.40
2019-01-17T05:50:08.883Z,3.40
2019-01-17T05:52:37.308Z,3.40
2019-01-17T05:55:07.101Z,3.50
2019-01-17T05:57:35.557Z,3.50
2019-01-17T06:00:09.602Z,3.50
2019-01-17T06:02:38.003Z,3.50
2019-01-17T06:05:07.655Z,3.60
2019-01-17T06:07:36.061Z,3.60
2019-01-17T06:10:06.704Z,3.70
2019-01-17T06:12:35.112Z,3.70
2019-01-17T06:15:03.987Z,3.70
2019-01-17T06:17:32.396Z,3.80
2019-01-17T06:20:00.803Z,3.80
2019-01-17T06:22:29.208Z,3.70
2019-01-17T06:24:57.616Z,3.70
2019-01-17T06:27:26.028Z,3.70
2019-01-17T06:29:54.438Z,3.70
2019-01-17T06:32:22.841Z,3.60
2019-01-17T06:34:51.260Z,3.60
2019-01-17T06:37:19.664Z,3.60
2019-01-17T06:39:48.077Z,3.60
2019-01-17T06:42:16.488Z,3.60
2019-01-17T06:44:44.911Z,3.50
2019-01-17T06:47:13.316Z,3.50
2019-01-17T06:49:41.728Z,3.50
2019-01-17T06:52:10.132Z,3.50
2019-01-17T06:54:38.536Z,3.40
2019-01-17T06:57:06.937Z,3.40
2019-01-17T06:59:35.339Z,3.40
2019-01-17T07:02:03.812Z,3.40
2019-01-17T07:04:32.213Z,3.40
2019-01-17T07:07:00.631Z,3.40
2019-01-17T07:09:29.024Z,3.40
2019-01-17T07:11:57.433Z,3.40
2019-01-17T07:14:25.838Z,3.40
2019-01-17T07:16:54.248Z,3.40
2019-01-17T07:19:22.791Z,3.50
2019-01-17T07:21:51.201Z,3.50
2019-01-17T07:24:19.599Z,3.60
2019-01-17T07:26:48.009Z,3.60
2019-01-17T07:29:16.416Z,3.70
2019-01-17T07:31:44.816Z,3.80
2019-01-17T07:34:13.221Z,3.80
2019-01-17T07:36:41.688Z,3.90
2019-01-17T07:39:10.103Z,3.90
2019-01-17T07:41:38.512Z,4.00
2019-01-17T07:44:06.907Z,4.00
2019-01-17T07:46:36.555Z,4.00
2019-01-17T07:49:05.074Z,4.10
2019-01-17T07:51:33.488Z,4.10
2019-01-17T07:54:01.900Z,4.20
2019-01-17T07:56:30.295Z,4.30
2019-01-17T07:58:58.708Z,4.30
2019-01-17T08:01:27.109Z,4.40
2019-01-17T08:03:55.526Z,4.40
2019-01-17T08:06:23.939Z,4.50
2019-01-17T08:08:52.359Z,4.60
2019-01-17T08:11:21.780Z,4.70
2019-01-17T08:13:50.216Z,4.80
2019-01-17T08:16:18.620Z,4.90
2019-01-17T08:18:47.028Z,5.10
2019-01-17T08:21:15.441Z,5.10
2019-01-17T08:23:43.864Z,5.20
2019-01-17T08:26:12.275Z,5.30
2019-01-17T08:28:40.671Z,5.40
2019-01-17T08:31:09.089Z,5.60
2019-01-17T08:33:37.489Z,5.60
2019-01-17T08:36:06.066Z,5.70
2019-01-17T08:38:34.470Z,5.70
2019-01-17T08:41:02.875Z,5.80
2019-01-17T08:43:31.279Z,5.90
2019-01-17T08:45:59.837Z,6.00
2019-01-17T08:48:28.241Z,6.00
2019-01-17T08:50:56.648Z,6.00
2019-01-17T08:53:25.079Z,6.10
2019-01-17T08:55:53.544Z,6.10
2019-01-17T08:58:21.952Z,6.10
2019-01-17T09:00:50.359Z,6.20
2019-01-17T09:03:18.788Z,6.20
2019-01-17T09:05:47.186Z,6.20
2019-01-17T09:08:15.591Z,6.30
2019-01-17T09:10:43.999Z,6.40
2019-01-17T09:13:12.403Z,6.60
2019-01-17T09:15:40.815Z,6.80
2019-01-17T09:18:09.219Z,6.90
2019-01-17T09:20:37.628Z,7.00
2019-01-17T09:23:06.034Z,7.20
2019-01-17T09:25:34.548Z,7.40
2019-01-17T09:28:02.960Z,7.40
2019-01-17T09:30:31.367Z,7.40
2019-01-17T09:32:59.847Z,7.50
2019-01-17T09:35:28.255Z,7.60
2019-01-17T09:37:56.680Z,7.70
2019-01-17T09:40:25.083Z,7.70
2019-01-17T09:42:53.483Z,7.70
2019-01-17T09:45:22.727Z,7.70
2019-01-17T09:47:51.213Z,7.70
2019-01-17T09:50:24.555Z,7.70
2019-01-17T09:52:53.033Z,7.80
2019-01-17T09:55:21.506Z,7.70
2019-01-17T09:57:49.917Z,7.80
2019-01-17T10:00:27.227Z,7.80
2019-01-17T10:02:55.781Z,7.80
2019-01-17T10:05:24.318Z,7.80
2019-01-17T10:07:52.732Z,7.80
2019-01-17T10:10:25.438Z,7.90
2019-01-17T10:12:53.980Z,7.80
2019-01-17T10:15:34.121Z,7.80
2019-01-17T10:18:24.931Z,7.80
2019-01-17T10:21:17.156Z,7.80
2019-01-17T10:24:06.308Z,7.80
2019-01-17T10:26:55.764Z,7.70
2019-01-17T10:29:44.891Z,7.70
2019-01-17T10:32:21.894Z,7.60
2019-01-17T10:35:16.973Z,7.60
2019-01-17T10:38:22.933Z,7.60
2019-01-17T10:41:09.714Z,7.60
2019-01-17T10:43:49.952Z,7.70
2019-01-17T10:46:42.271Z,7.60
2019-01-17T10:49:16.412Z,7.70
2019-01-17T10:51:56.684Z,7.70
2019-01-17T10:54:48.889Z,7.90
2019-01-17T10:57:32.305Z,8.00
2019-01-17T11:00:04.904Z,8.20
2019-01-17T11:02:52.549Z,8.30
2019-01-17T11:05:57.403Z,8.30
2019-01-17T11:08:34.486Z,8.20
2019-01-17T11:11:20.593Z,8.20
2019-01-17T11:13:54.969Z,8.20
2019-01-17T11:16:41.171Z,8.20
2019-01-17T11:19:32.838Z,8.20
2019-01-17T11:22:15.927Z,8.30
2019-01-17T11:25:14.275Z,8.40
2019-01-17T11:27:57.351Z,8.40
2019-01-17T11:30:31.429Z,8.30
2019-01-17T11:33:35.890Z,8.50
2019-01-17T11:36:10.050Z,8.60
2019-01-17T11:38:59.403Z,8.70
2019-01-17T11:41:42.469Z,8.70
2019-01-17T11:44:39.220Z,8.70
2019-01-17T11:47:27.236Z,8.70
2019-01-17T11:50:22.856Z,8.70
2019-01-17T11:53:02.736Z,8.70
2019-01-17T11:55:43.291Z,8.60
2019-01-17T11:58:32.471Z,8.60
2019-01-17T12:01:32.260Z,8.50
2019-01-17T12:04:14.860Z,8.60
2019-01-17T12:06:43.269Z,8.40
2019-01-17T12:09:11.677Z,8.40
2019-01-17T12:11:40.084Z,8.30
2019-01-17T12:14:08.496Z,8.20
2019-01-17T12:16:36.917Z,8.20
2019-01-17T12:19:05.319Z,8.10
2019-01-17T12:21:33.720Z,8.20
2019-01-17T12:24:02.120Z,8.20
2019-01-17T12:26:30.537Z,8.10
2019-01-17T12:28:58.948Z,8.20
2019-01-17T12:31:27.353Z,8.10
2019-01-17T12:33:55.771Z,8.10
2019-01-17T12:36:24.171Z,8.10
2019-01-17T12:38:52.584Z,8.10
2019-01-17T12:41:20.979Z,8.10
2019-01-17T12:43:49.391Z,8.10
2019-01-17T12:46:17.835Z,8.00
2019-01-17T12:48:46.279Z,7.90
2019-01-17T12:51:15.028Z,7.90
2019-01-17T12:53:43.440Z,7.80
2019-01-17T12:56:11.916Z,7.70
2019-01-17T12:58:40.383Z,7.70
2019-01-17T13:01:08.800Z,7.70
2019-01-17T13:03:37.206Z,7.60
2019-01-17T13:06:05.688Z,7.40
2019-01-17T13:08:34.149Z,7.40
2019-01-17T13:11:02.643Z,7.40
2019-01-17T13:13:31.049Z,7.30
2019-01-17T13:15:59.463Z,7.20
2019-01-17T13:18:27.881Z,7.20
2019-01-17T13:20:56.284Z,7.10
2019-01-17T13:23:24.697Z,7.20
2019-01-17T13:25:53.241Z,7.10
2019-01-17T13:28:21.667Z,7.10
2019-01-17T13:30:50.085Z,7.00
2019-01-17T13:33:18.471Z,7.00
2019-01-17T13:35:46.884Z,7.00
2019-01-17T13:38:15.293Z,6.80
2019-01-17T13:40:43.699Z,6.70
2019-01-17T13:43:12.105Z,6.60
2019-01-17T13:45:40.516Z,6.60
2019-01-17T13:48:08.917Z,6.60
2019-01-17T13:50:37.341Z,6.60
2019-01-17T13:53:05.863Z,6.60
2019-01-17T13:55:34.276Z,6.50
2019-01-17T13:58:02.676Z,6.40
2019-01-17T14:00:31.156Z,6.40
2019-01-17T14:02:59.559Z,6.40
2019-01-17T14:05:27.971Z,6.30
2019-01-17T14:07:56.393Z,6.30
2019-01-17T14:10:24.807Z,6.20
2019-01-17T14:12:53.212Z,6.20
2019-01-17T14:15:24.616Z,6.10
2019-01-17T14:17:53.026Z,6.10
2019-01-17T14:20:21.496Z,6.10
2019-01-17T14:22:49.982Z,6.00
2019-01-17T14:25:18.528Z,6.00
2019-01-17T14:27:46.938Z,5.90
2019-01-17T14:30:30.170Z,5.90
2019-01-17T14:32:58.651Z,6.00
2019-01-17T14:35:27.208Z,5.90
2019-01-17T14:37:55.607Z,5.80
2019-01-17T14:40:24.160Z,5.70
2019-01-17T14:42:52.559Z,5.70
2019-01-17T14:45:21.999Z,5.70
2019-01-17T14:47:50.404Z,5.70
2019-01-17T14:50:27.033Z,5.70
2019-01-17T14:52:55.437Z,5.60
2019-01-17T14:55:23.919Z,5.50
2019-01-17T14:57:52.338Z,5.50
2019-01-17T15:00:29.511Z,5.50
2019-01-17T15:02:57.917Z,5.50
2019-01-17T15:05:26.332Z,5.50
2019-01-17T15:07:54.749Z,5.40
2019-01-17T15:10:31.724Z,5.40
2019-01-17T15:13:00.204Z,5.40
2019-01-17T15:15:28.694Z,5.40
2019-01-17T15:17:57.096Z,5.40
2019-01-17T15:20:25.763Z,5.40
2019-01-17T15:22:54.235Z,5.30
2019-01-17T15:25:22.792Z,5.30
2019-01-17T15:27:51.191Z,5.30
2019-01-17T15:30:22.209Z,5.30
2019-01-17T15:32:50.853Z,5.30
2019-01-17T15:35:19.250Z,5.30
2019-01-17T15:37:47.733Z,5.20
2019-01-17T15:40:18.939Z,5.20
2019-01-17T15:42:47.353Z,5.10
2019-01-17T15:45:15.751Z,5.10
2019-01-17T15:47:44.165Z,5.10
2019-01-17T15:50:15.106Z,5.10
2019-01-17T15:52:43.507Z,5.00
2019-01-17T15:55:14.056Z,5.00
2019-01-17T15:57:42.991Z,5.00
2019-01-17T16:00:14.543Z,4.90
2019-01-17T16:02:42.945Z,4.90
2019-01-17T16:05:30.708Z,4.90
2019-01-17T16:07:59.584Z,4.90
2019-01-17T16:10:28.074Z,4.90
2019-01-17T16:12:56.491Z,4.80
2019-01-17T16:15:25.637Z,4.80
2019-01-17T16:17:54.139Z,4.80
2019-01-17T16:20:22.548Z,4.80
2019-01-17T16:22:51.501Z,4.80
2019-01-17T16:25:19.903Z,4.90
2019-01-17T16:27:52.955Z,4.80
2019-01-17T16:30:26.772Z,4.80
2019-01-17T16:32:55.843Z,4.90
2019-01-17T16:35:24.844Z,4.80
2019-01-17T16:37:53.669Z,4.80
2019-01-17T16:40:22.207Z,4.80
2019-01-17T16:42:50.632Z,4.70
2019-01-17T16:45:21.677Z,4.80
2019-01-17T16:47:50.121Z,4.80
2019-01-17T16:50:20.471Z,4.70
2019-01-17T16:52:48.935Z,4.70
2019-01-17T16:55:17.493Z,4.70
2019-01-17T16:57:49.210Z,4.70
2019-01-17T17:00:18.908Z,4.70
2019-01-17T17:02:47.320Z,4.70
2019-01-17T17:05:15.906Z,4.70
2019-01-17T17:07:47.296Z,4.70
2019-01-17T17:10:15.953Z,4.70
2019-01-17T17:12:44.350Z,4.70
2019-01-17T17:15:13.309Z,4.60
2019-01-17T17:17:41.699Z,4.60
2019-01-17T17:20:21.936Z,4.70
2019-01-17T17:22:50.336Z,4.70
2019-01-17T17:25:18.824Z,4.70
2019-01-17T17:27:47.314Z,4.60
2019-01-17T17:30:19.865Z,4.50
2019-01-17T17:32:48.386Z,4.50
2019-01-17T17:35:16.964Z,4.50
2019-01-17T17:37:45.380Z,4.50
2019-01-17T17:40:16.921Z,4.50
2019-01-17T17:42:45.339Z,4.50
2019-01-17T17:45:13.881Z,4.50
2019-01-17T17:47:42.297Z,4.40
2019-01-17T17:50:18.807Z,4.50
2019-01-17T17:52:47.220Z,4.40
2019-01-17T17:55:17.081Z,4.40
2019-01-17T17:57:47.253Z,4.40
2019-01-17T18:00:25.987Z,4.40
2019-01-17T18:02:54.976Z,4.30
2019-01-17T18:05:23.532Z,4.30
2019-01-17T18:07:52.084Z,4.30
2019-01-17T18:10:20.559Z,4.30
2019-01-17T18:12:48.971Z,4.20
2019-01-17T18:15:19.374Z,4.20
2019-01-17T18:17:48.327Z,4.30
2019-01-17T18:20:17.906Z,4.30
2019-01-17T18:22:46.387Z,4.30
2019-01-17T18:25:14.936Z,4.20
2019-01-17T18:27:43.402Z,4.20
2019-01-17T18:30:14.896Z,4.20
2019-01-17T18:32:43.375Z,4.20
2019-01-17T18:35:12.027Z,4.10
2019-01-17T18:37:40.429Z,4.10
2019-01-17T18:40:11.786Z,4.10
2019-01-17T18:42:40.271Z,4.10
2019-01-17T18:45:11.794Z,4.10
2019-01-17T18:47:40.382Z,4.10
2019-01-17T18:50:11.743Z,4.10
2019-01-17T18:52:40.296Z,4.10
2019-01-17T18:55:08.842Z,4.10
2019-01-17T18:57:37.247Z,4.10
2019-01-17T19:00:21.641Z,4.10
2019-01-17T19:02:50.201Z,4.10
2019-01-17T19:05:18.738Z,4.10
2019-01-17T19:07:47.207Z,4.10
2019-01-17T19:10:17.560Z,4.10
2019-01-17T19:12:47.512Z,4.00
2019-01-17T19:15:18.563Z,4.00
2019-01-17T19:17:46.973Z,4.10
2019-01-17T19:20:17.321Z,4.10
2019-01-17T19:22:45.870Z,4.00
2019-01-17T19:25:14.718Z,4.00
2019-01-17T19:27:43.256Z,4.00
2019-01-17T19:30:14.809Z,4.00
2019-01-17T19:32:43.277Z,4.00
2019-01-17T19:35:11.751Z,4.00
2019-01-17T19:37:40.232Z,4.00
2019-01-17T19:40:15.558Z,4.00
2019-01-17T19:42:44.157Z,3.90
2019-01-17T19:45:14.390Z,3.90
2019-01-17T19:47:43.046Z,3.90
2019-01-17T19:50:17.637Z,3.80
2019-01-17T19:52:46.120Z,3.80
2019-01-17T19:55:14.519Z,3.80
2019-01-17T19:57:42.944Z,3.80
2019-01-17T20:00:15.046Z,3.80
2019-01-17T20:02:43.599Z,3.80
2019-01-17T20:05:14.538Z,3.80
2019-01-17T20:07:43.015Z,3.80
2019-01-17T20:10:22.760Z,3.80
2019-01-17T20:12:51.254Z,3.80
2019-01-17T20:15:19.671Z,3.80
2019-01-17T20:17:48.216Z,3.80
2019-01-17T20:20:18.071Z,3.70
2019-01-17T20:22:46.611Z,3.70
2019-01-17T20:25:15.746Z,3.80
2019-01-17T20:27:44.212Z,3.80
2019-01-17T20:30:18.506Z,3.80
2019-01-17T20:32:47.245Z,3.70
2019-01-17T20:35:15.829Z,3.70
2019-01-17T20:37:44.371Z,3.70
2019-01-17T20:40:15.720Z,3.70
2019-01-17T20:42:44.370Z,3.70
2019-01-17T20:45:13.668Z,3.70
2019-01-17T20:47:42.157Z,3.70
2019-01-17T20:50:13.371Z,3.70
2019-01-17T20:52:41.785Z,3.70
2019-01-17T20:55:11.623Z,3.70
2019-01-17T20:57:40.580Z,3.70
2019-01-17T21:00:24.044Z,3.70
2019-01-17T21:02:52.464Z,3.70
2019-01-17T21:05:21.035Z,3.70
2019-01-17T21:07:49.452Z,3.70
2019-01-17T21:10:18.260Z,3.60
2019-01-17T21:12:46.659Z,3.60
2019-01-17T21:15:15.513Z,3.50
2019-01-17T21:17:43.984Z,3.60
2019-01-17T21:20:13.609Z,3.50
2019-01-17T21:22:42.080Z,3.50
2019-01-17T21:25:13.499Z,3.50
2019-01-17T21:27:41.910Z,3.50
2019-01-17T21:30:24.591Z,3.50
2019-01-17T21:32:53.060Z,3.50
2019-01-17T21:35:21.546Z,3.50
2019-01-17T21:37:50.015Z,3.50
2019-01-17T21:40:21.136Z,3.50
2019-01-17T21:42:49.543Z,3.50
2019-01-17T21:45:18.788Z,3.50
2019-01-17T21:47:47.192Z,3.50
2019-01-17T21:50:18.743Z,3.50
2019-01-17T21:52:47.236Z,3.40
2019-01-17T21:55:15.645Z,3.40
2019-01-17T21:57:44.048Z,3.40
2019-01-17T22:00:18.715Z,3.40
2019-01-17T22:02:47.202Z,3.40
2019-01-17T22:05:15.620Z,3.40
2019-01-17T22:07:44.099Z,3.40
2019-01-17T22:10:16.672Z,3.40
2019-01-17T22:12:45.085Z,3.40
2019-01-17T22:15:16.479Z,3.40
2019-01-17T22:17:44.898Z,3.40
2019-01-17T22:20:13.547Z,3.10
2019-01-17T22:22:42.089Z,2.60
2019-01-17T22:25:13.139Z,2.20
2019-01-17T22:27:41.547Z,1.90
2019-01-17T22:30:30.004Z,1.60
2019-01-17T22:32:58.482Z,1.50
2019-01-17T22:35:26.898Z,1.40
2019-01-17T22:37:55.297Z,1.30
2019-01-17T22:40:23.876Z,1.30
2019-01-17T22:42:52.280Z,1.30
2019-01-17T22:45:28.999Z,1.40
2019-01-17T22:47:57.411Z,1.40
2019-01-17T22:50:25.900Z,1.40
2019-01-17T22:52:54.447Z,1.50
2019-01-17T22:55:22.851Z,1.50
2019-01-17T22:57:51.263Z,1.50
2019-01-17T23:00:29.968Z,1.50
2019-01-17T23:02:58.552Z,1.50
2019-01-17T23:05:27.021Z,1.50
2019-01-17T23:07:55.424Z,1.50
2019-01-17T23:10:23.845Z,1.60
2019-01-17T23:12:52.290Z,1.60
2019-01-17T23:15:20.752Z,1.60
2019-01-17T23:17:49.264Z,1.60
2019-01-17T23:20:17.671Z,1.70
2019-01-17T23:22:46.103Z,1.70
2019-01-17T23:25:14.636Z,1.80
2019-01-17T23:27:43.036Z,1.80
2019-01-17T23:30:13.650Z,1.80
2019-01-17T23:32:42.058Z,1.90
2019-01-17T23:35:10.490Z,1.90
2019-01-17T23:37:38.948Z,1.90
2019-01-17T23:40:09.544Z,1.90
2019-01-17T23:42:38.036Z,1.90
2019-01-17T23:45:08.071Z,1.90
2019-01-17T23:47:36.479Z,1.90
2019-01-17T23:50:10.368Z,1.90
2019-01-17T23:52:38.920Z,1.80
2019-01-17T23:55:08.252Z,1.90
2019-01-17T23:57:37.002Z,1.90
